TKJ8WR LTBJ-LTAC
Flight info
| Callsign | TKJ8WR |
|---|---|
| Flight time | N/A |
| Altitude | 35000 |
| Route | KULAR1T/34L KULAR UT54 HALIL |
| Aircraft | B738/M-SDE2E3FGHIRWXY/LB1 |
Departure
| Time | 2026-05-04 17:53 |
|---|---|
| Airport | Adnan Menderes International Airport (LTBJ) |
Arrival
| Time | N/A |
|---|---|
| Airport | Esenboğa International Airport (LTAC) |
| Time | Latitude | Longitude | Altitude | Speed | Heading |
|---|---|---|---|---|---|
| 2026-05-04 17:31 | 38.29290 | 27.15053 | 398 ft | 0 kts | 257° |
| 2026-05-04 17:37 | 38.29289 | 27.15047 | 398 ft | 0 kts | 257° |
| 2026-05-04 17:37 | 38.29244 | 27.15060 | 395 ft | 0 kts | 256° |
| 2026-05-04 17:44 | 38.29247 | 27.15078 | 393 ft | 4 kts | 255° |
| 2026-05-04 17:44 | 38.29255 | 27.15111 | 396 ft | 4 kts | 250° |
| 2026-05-04 17:45 | 38.29266 | 27.15142 | 392 ft | 4 kts | 241° |
| 2026-05-04 17:45 | 38.29277 | 27.15165 | 392 ft | 1 kts | 233° |
| 2026-05-04 17:45 | 38.29279 | 27.15169 | 392 ft | 0 kts | 233° |
| 2026-05-04 17:47 | 38.29255 | 27.15159 | 394 ft | 4 kts | 168° |
| 2026-05-04 17:47 | 38.29173 | 27.15181 | 395 ft | 17 kts | 167° |
| 2026-05-04 17:47 | 38.29053 | 27.15219 | 392 ft | 17 kts | 166° |
| 2026-05-04 17:47 | 38.29011 | 27.15262 | 393 ft | 5 kts | 86° |
| 2026-05-04 17:48 | 38.29005 | 27.15306 | 393 ft | 5 kts | 129° |
| 2026-05-04 17:48 | 38.28952 | 27.15328 | 392 ft | 15 kts | 166° |
| 2026-05-04 17:48 | 38.28810 | 27.15372 | 390 ft | 22 kts | 166° |
| 2026-05-04 17:48 | 38.28663 | 27.15417 | 388 ft | 22 kts | 167° |
| 2026-05-04 17:49 | 38.28518 | 27.15451 | 385 ft | 21 kts | 169° |
| 2026-05-04 17:49 | 38.28376 | 27.15488 | 383 ft | 20 kts | 168° |
| 2026-05-04 17:49 | 38.28240 | 27.15528 | 381 ft | 20 kts | 166° |
| 2026-05-04 17:49 | 38.28108 | 27.15568 | 379 ft | 19 kts | 167° |
| 2026-05-04 17:50 | 38.27980 | 27.15606 | 377 ft | 19 kts | 167° |
| 2026-05-04 17:50 | 38.27857 | 27.15643 | 375 ft | 18 kts | 166° |
| 2026-05-04 17:50 | 38.27756 | 27.15686 | 373 ft | 8 kts | 131° |
| 2026-05-04 17:50 | 38.27757 | 27.15738 | 373 ft | 6 kts | 70° |
| 2026-05-04 17:51 | 38.27768 | 27.15789 | 372 ft | 1 kts | 75° |
| 2026-05-04 17:51 | 38.27769 | 27.15790 | 372 ft | 0 kts | 75° |
| 2026-05-04 17:51 | 38.27771 | 27.15803 | 372 ft | 5 kts | 75° |
| 2026-05-04 17:51 | 38.27794 | 27.15879 | 371 ft | 11 kts | 50° |
| 2026-05-04 17:52 | 38.27855 | 27.15894 | 372 ft | 8 kts | 340° |
| 2026-05-04 17:52 | 38.27934 | 27.15868 | 374 ft | 32 kts | 346° |
| 2026-05-04 17:52 | 38.28460 | 27.15710 | 385 ft | 120 kts | 347° |
| 2026-05-04 17:52 | 38.29496 | 27.15393 | 622 ft | 174 kts | 346° |
| 2026-05-04 17:53 | 38.30743 | 27.15029 | 1422 ft | 196 kts | 347° |
| 2026-05-04 17:53 | 38.32133 | 27.14702 | 2262 ft | 207 kts | 350° |
| 2026-05-04 17:53 | 38.33518 | 27.14348 | 3062 ft | 210 kts | 347° |
| 2026-05-04 17:53 | 38.35032 | 27.13913 | 3363 ft | 234 kts | 347° |
| 2026-05-04 17:54 | 38.36650 | 27.13454 | 3917 ft | 242 kts | 347° |
| 2026-05-04 17:54 | 38.38347 | 27.13305 | 4506 ft | 252 kts | 11° |
| 2026-05-04 17:54 | 38.39958 | 27.14269 | 5074 ft | 266 kts | 40° |
| 2026-05-04 17:54 | 38.41202 | 27.16049 | 5902 ft | 272 kts | 53° |
| 2026-05-04 17:55 | 38.42296 | 27.18025 | 6842 ft | 275 kts | 55° |
| 2026-05-04 17:55 | 38.43393 | 27.20047 | 7594 ft | 279 kts | 55° |
| 2026-05-04 17:55 | 38.44433 | 27.22106 | 7940 ft | 283 kts | 66° |
| 2026-05-04 17:55 | 38.44958 | 27.24539 | 8626 ft | 287 kts | 78° |
| 2026-05-04 17:56 | 38.45390 | 27.27028 | 9577 ft | 287 kts | 77° |
| 2026-05-04 17:56 | 38.45840 | 27.29525 | 10401 ft | 293 kts | 77° |
| 2026-05-04 17:56 | 38.46324 | 27.32165 | 10658 ft | 319 kts | 77° |
| 2026-05-04 17:56 | 38.46848 | 27.35010 | 11087 ft | 336 kts | 77° |
| 2026-05-04 17:57 | 38.47275 | 27.37974 | 11812 ft | 342 kts | 82° |
| 2026-05-04 17:57 | 38.47576 | 27.41003 | 12631 ft | 345 kts | 83° |
| 2026-05-04 17:57 | 38.47863 | 27.44060 | 13418 ft | 349 kts | 83° |
| 2026-05-04 17:57 | 38.48166 | 27.47112 | 14152 ft | 354 kts | 82° |
| 2026-05-04 17:58 | 38.48489 | 27.50243 | 14854 ft | 359 kts | 82° |
| 2026-05-04 17:58 | 38.48848 | 27.53409 | 15385 ft | 361 kts | 81° |
| 2026-05-04 17:58 | 38.49281 | 27.56561 | 15484 ft | 360 kts | 79° |
| 2026-05-04 17:58 | 38.49775 | 27.59940 | 15501 ft | 361 kts | 79° |
| 2026-05-04 17:59 | 38.53201 | 27.84147 | 15644 ft | 374 kts | 80° |
| 2026-05-04 17:59 | 38.53668 | 27.87595 | 16545 ft | 369 kts | 80° |
| 2026-05-04 17:59 | 38.54541 | 27.94053 | 18093 ft | 372 kts | 80° |
| 2026-05-04 18:00 | 38.54981 | 27.97292 | 18680 ft | 378 kts | 80° |
| 2026-05-04 18:00 | 38.55433 | 28.00614 | 19299 ft | 381 kts | 80° |
| 2026-05-04 18:00 | 38.55889 | 28.03963 | 19923 ft | 385 kts | 80° |
| 2026-05-04 18:00 | 38.56348 | 28.07344 | 20529 ft | 388 kts | 80° |
| 2026-05-04 18:01 | 38.56811 | 28.10758 | 21108 ft | 391 kts | 80° |
| 2026-05-04 18:01 | 38.57277 | 28.14202 | 21667 ft | 395 kts | 80° |
| 2026-05-04 18:01 | 38.57746 | 28.17672 | 22207 ft | 398 kts | 80° |
| 2026-05-04 18:02 | 38.58681 | 28.24714 | 23244 ft | 405 kts | 82° |
| 2026-05-04 18:02 | 38.58827 | 28.28275 | 23731 ft | 408 kts | 90° |
| 2026-05-04 18:02 | 38.58767 | 28.31916 | 24207 ft | 412 kts | 92° |
| 2026-05-04 18:02 | 38.58662 | 28.35592 | 24656 ft | 416 kts | 92° |
| 2026-05-04 18:03 | 38.58563 | 28.39296 | 25075 ft | 420 kts | 91° |
| 2026-05-04 18:03 | 38.58484 | 28.43044 | 25485 ft | 424 kts | 91° |
| 2026-05-04 18:03 | 38.58422 | 28.46822 | 25905 ft | 427 kts | 91° |
| 2026-05-04 18:03 | 38.58370 | 28.50618 | 26356 ft | 428 kts | 91° |
| 2026-05-04 18:04 | 38.58322 | 28.54434 | 26775 ft | 431 kts | 91° |
| 2026-05-04 18:04 | 38.58271 | 28.58276 | 27158 ft | 434 kts | 91° |
| 2026-05-04 18:04 | 38.58300 | 28.65988 | 27877 ft | 439 kts | 85° |
| 2026-05-04 18:05 | 38.58647 | 28.69870 | 28275 ft | 441 kts | 82° |
| 2026-05-04 18:05 | 38.59100 | 28.73752 | 28661 ft | 442 kts | 81° |
| 2026-05-04 18:05 | 38.59572 | 28.77647 | 29014 ft | 444 kts | 81° |
| 2026-05-04 18:05 | 38.60026 | 28.81566 | 29340 ft | 447 kts | 82° |
| 2026-05-04 18:06 | 38.60867 | 28.89490 | 29936 ft | 452 kts | 82° |
| 2026-05-04 18:06 | 38.61263 | 28.93429 | 30254 ft | 454 kts | 83° |
| 2026-05-04 18:06 | 38.61661 | 28.97444 | 30530 ft | 457 kts | 83° |
| 2026-05-04 18:07 | 38.62061 | 29.01482 | 30777 ft | 459 kts | 83° |
| 2026-05-04 18:07 | 38.62463 | 29.05543 | 31046 ft | 461 kts | 83° |
| 2026-05-04 18:07 | 38.62866 | 29.09620 | 31328 ft | 463 kts | 83° |
| 2026-05-04 18:07 | 38.63270 | 29.13703 | 31662 ft | 462 kts | 83° |
| 2026-05-04 18:08 | 38.63679 | 29.17773 | 32109 ft | 460 kts | 82° |
| 2026-05-04 18:08 | 38.64083 | 29.21765 | 32497 ft | 458 kts | 82° |
| 2026-05-04 18:08 | 38.64490 | 29.25801 | 32817 ft | 458 kts | 83° |
| 2026-05-04 18:08 | 38.64897 | 29.29843 | 33093 ft | 459 kts | 83° |
| 2026-05-04 18:09 | 38.65705 | 29.37940 | 33701 ft | 458 kts | 83° |
| 2026-05-04 18:09 | 38.66505 | 29.46021 | 34328 ft | 457 kts | 83° |
| 2026-05-04 18:10 | 38.66929 | 29.50046 | 34639 ft | 456 kts | 81° |
| 2026-05-04 18:10 | 38.67424 | 29.54054 | 34926 ft | 456 kts | 81° |
| 2026-05-04 18:10 | 38.67947 | 29.58050 | 35178 ft | 456 kts | 80° |
| 2026-05-04 18:10 | 38.68468 | 29.61999 | 35419 ft | 456 kts | 80° |
| 2026-05-04 18:11 | 38.68988 | 29.66001 | 35712 ft | 455 kts | 81° |
| 2026-05-04 18:11 | 38.69498 | 29.69990 | 36011 ft | 454 kts | 81° |
| 2026-05-04 18:11 | 38.69999 | 29.73972 | 36294 ft | 453 kts | 81° |
| 2026-05-04 18:11 | 38.70495 | 29.77951 | 36510 ft | 453 kts | 81° |
| 2026-05-04 18:12 | 38.70989 | 29.81942 | 36682 ft | 455 kts | 81° |
| 2026-05-04 18:12 | 38.71484 | 29.85945 | 36851 ft | 456 kts | 81° |
| 2026-05-04 18:12 | 38.71978 | 29.89953 | 37073 ft | 456 kts | 81° |
| 2026-05-04 18:12 | 38.72465 | 29.93907 | 37246 ft | 457 kts | 81° |
| 2026-05-04 18:13 | 38.72960 | 29.97934 | 37403 ft | 458 kts | 81° |
| 2026-05-04 18:13 | 38.73461 | 30.01970 | 37558 ft | 459 kts | 81° |
| 2026-05-04 18:13 | 38.74531 | 30.10034 | 37940 ft | 459 kts | 80° |
| 2026-05-04 18:14 | 38.75073 | 30.14049 | 38236 ft | 456 kts | 80° |
| 2026-05-04 18:14 | 38.75608 | 30.18039 | 38515 ft | 454 kts | 80° |
| 2026-05-04 18:14 | 38.76138 | 30.22024 | 38673 ft | 454 kts | 80° |
| 2026-05-04 18:15 | 38.78237 | 30.38018 | 38704 ft | 455 kts | 80° |
| 2026-05-04 18:16 | 38.79268 | 30.45938 | 38316 ft | 445 kts | 81° |
| 2026-05-04 18:16 | 38.79775 | 30.49851 | 37705 ft | 446 kts | 81° |
| 2026-05-04 18:16 | 38.80323 | 30.53769 | 37033 ft | 448 kts | 76° |
| 2026-05-04 18:17 | 38.82435 | 30.61169 | 36165 ft | 441 kts | 66° |
| 2026-05-04 18:17 | 38.83658 | 30.64747 | 35802 ft | 436 kts | 66° |
| 2026-05-04 18:17 | 38.86085 | 30.71826 | 34919 ft | 431 kts | 66° |
| 2026-05-04 18:18 | 38.87273 | 30.75339 | 34495 ft | 428 kts | 66° |
| 2026-05-04 18:18 | 38.88445 | 30.78833 | 34078 ft | 425 kts | 66° |
| 2026-05-04 18:18 | 38.89605 | 30.82313 | 33653 ft | 422 kts | 67° |
| 2026-05-04 18:18 | 38.90752 | 30.85771 | 33247 ft | 420 kts | 67° |
| 2026-05-04 18:19 | 38.93005 | 30.92582 | 32422 ft | 415 kts | 67° |
| 2026-05-04 18:19 | 38.94126 | 30.95980 | 32050 ft | 411 kts | 67° |
| 2026-05-04 18:19 | 38.95236 | 30.99347 | 31661 ft | 408 kts | 67° |
| 2026-05-04 18:20 | 38.96340 | 31.02696 | 31234 ft | 407 kts | 67° |
| 2026-05-04 18:20 | 38.97439 | 31.06035 | 30833 ft | 405 kts | 67° |
| 2026-05-04 18:20 | 38.98530 | 31.09355 | 30479 ft | 401 kts | 67° |
| 2026-05-04 18:20 | 38.99609 | 31.12641 | 30133 ft | 397 kts | 67° |
| 2026-05-04 18:21 | 39.00677 | 31.15900 | 29773 ft | 394 kts | 67° |
| 2026-05-04 18:21 | 39.01723 | 31.19093 | 29375 ft | 392 kts | 67° |
| 2026-05-04 18:21 | 39.02776 | 31.22310 | 28968 ft | 389 kts | 67° |
| 2026-05-04 18:21 | 39.03823 | 31.25514 | 28555 ft | 387 kts | 67° |
| 2026-05-04 18:22 | 39.04862 | 31.28696 | 28151 ft | 385 kts | 67° |
| 2026-05-04 18:22 | 39.05894 | 31.31860 | 27775 ft | 382 kts | 67° |
| 2026-05-04 18:22 | 39.06915 | 31.34997 | 27387 ft | 379 kts | 67° |
| 2026-05-04 18:22 | 39.07931 | 31.38120 | 26993 ft | 377 kts | 67° |
| 2026-05-04 18:23 | 39.08941 | 31.41226 | 26605 ft | 375 kts | 67° |
| 2026-05-04 18:23 | 39.09929 | 31.44271 | 26210 ft | 373 kts | 67° |
| 2026-05-04 18:23 | 39.10926 | 31.47344 | 25842 ft | 370 kts | 67° |
| 2026-05-04 18:23 | 39.11914 | 31.50394 | 25463 ft | 368 kts | 67° |
| 2026-05-04 18:24 | 39.12894 | 31.53424 | 25079 ft | 366 kts | 67° |
| 2026-05-04 18:24 | 39.13869 | 31.56439 | 24701 ft | 364 kts | 67° |
| 2026-05-04 18:24 | 39.14838 | 31.59441 | 24309 ft | 362 kts | 67° |
| 2026-05-04 18:24 | 39.15799 | 31.62420 | 23947 ft | 359 kts | 67° |
| 2026-05-04 18:25 | 39.16754 | 31.65382 | 23584 ft | 357 kts | 67° |
| 2026-05-04 18:25 | 39.17701 | 31.68327 | 23210 ft | 355 kts | 67° |
| 2026-05-04 18:25 | 39.18632 | 31.71222 | 22842 ft | 353 kts | 67° |
| 2026-05-04 18:25 | 39.19568 | 31.74134 | 22467 ft | 351 kts | 67° |
| 2026-05-04 18:26 | 39.20500 | 31.77038 | 22101 ft | 349 kts | 67° |
| 2026-05-04 18:26 | 39.21424 | 31.79922 | 21739 ft | 347 kts | 67° |
| 2026-05-04 18:26 | 39.22343 | 31.82793 | 21380 ft | 345 kts | 67° |
| 2026-05-04 18:26 | 39.23254 | 31.85646 | 21026 ft | 343 kts | 68° |
| 2026-05-04 18:27 | 39.24159 | 31.88486 | 20667 ft | 341 kts | 68° |
| 2026-05-04 18:27 | 39.25057 | 31.91308 | 20317 ft | 339 kts | 68° |
| 2026-05-04 18:27 | 39.25938 | 31.94078 | 19971 ft | 337 kts | 68° |
| 2026-05-04 18:27 | 39.26884 | 31.96951 | 17810 ft | 378 kts | 66° |
| 2026-05-04 18:28 | 39.27970 | 31.99964 | 17651 ft | 364 kts | 66° |
| 2026-05-04 18:28 | 39.28927 | 32.02965 | 17356 ft | 358 kts | 68° |
| 2026-05-04 18:28 | 39.29817 | 32.05943 | 16966 ft | 354 kts | 69° |
| 2026-05-04 18:28 | 39.30692 | 32.08869 | 16606 ft | 344 kts | 69° |
| 2026-05-04 18:29 | 39.31552 | 32.11698 | 16250 ft | 333 kts | 68° |
| 2026-05-04 18:29 | 39.32397 | 32.14431 | 15897 ft | 322 kts | 68° |
| 2026-05-04 18:29 | 39.33223 | 32.17075 | 15573 ft | 313 kts | 68° |
| 2026-05-04 18:29 | 39.34028 | 32.19642 | 15250 ft | 304 kts | 68° |
| 2026-05-04 18:30 | 39.35567 | 32.24537 | 14639 ft | 289 kts | 68° |
| 2026-05-04 18:30 | 39.36319 | 32.26928 | 14338 ft | 286 kts | 68° |
| 2026-05-04 18:30 | 39.37066 | 32.29306 | 14045 ft | 286 kts | 68° |
| 2026-05-04 18:31 | 39.37826 | 32.31731 | 13760 ft | 298 kts | 68° |
| 2026-05-04 18:31 | 39.38618 | 32.34257 | 13449 ft | 308 kts | 68° |
| 2026-05-04 18:31 | 39.39407 | 32.36824 | 13495 ft | 302 kts | 69° |
| 2026-05-04 18:31 | 39.40131 | 32.39281 | 13887 ft | 283 kts | 70° |
| 2026-05-04 18:32 | 39.40774 | 32.41601 | 14042 ft | 276 kts | 71° |
| 2026-05-04 18:32 | 39.41629 | 32.43761 | 13781 ft | 269 kts | 20° |
| 2026-05-04 18:32 | 39.43508 | 32.44550 | 12696 ft | 307 kts | 12° |
| 2026-05-04 18:32 | 39.45673 | 32.45032 | 11814 ft | 322 kts | 6° |
| 2026-05-04 18:33 | 39.45788 | 32.45050 | 11759 ft | 324 kts | 6° |